sensor_id;sensor_type;location;lat;lon;timestamp;temperature;humidity
7234;DHT22;3658;47.992;10.158;2022-08-19T00:01:52;23.50;58.70
7234;DHT22;3658;47.992;10.158;2022-08-19T00:04:22;23.50;58.70
7234;DHT22;3658;47.992;10.158;2022-08-19T00:06:51;23.50;58.70
7234;DHT22;3658;47.992;10.158;2022-08-19T00:09:22;23.50;58.60
7234;DHT22;3658;47.992;10.158;2022-08-19T00:11:50;23.50;58.60
7234;DHT22;3658;47.992;10.158;2022-08-19T00:14:18;23.50;58.50
7234;DHT22;3658;47.992;10.158;2022-08-19T00:16:46;23.50;58.50
7234;DHT22;3658;47.992;10.158;2022-08-19T00:19:14;23.50;58.50
7234;DHT22;3658;47.992;10.158;2022-08-19T00:21:41;23.50;58.50
7234;DHT22;3658;47.992;10.158;2022-08-19T00:24:10;23.50;58.40
7234;DHT22;3658;47.992;10.158;2022-08-19T00:26:40;23.50;58.40
7234;DHT22;3658;47.992;10.158;2022-08-19T00:29:09;23.50;58.40
7234;DHT22;3658;47.992;10.158;2022-08-19T00:31:37;23.50;58.30
7234;DHT22;3658;47.992;10.158;2022-08-19T00:34:04;23.50;58.30
7234;DHT22;3658;47.992;10.158;2022-08-19T00:36:31;23.50;58.30
7234;DHT22;3658;47.992;10.158;2022-08-19T00:38:58;23.50;58.30
7234;DHT22;3658;47.992;10.158;2022-08-19T00:41:26;23.50;58.30
7234;DHT22;3658;47.992;10.158;2022-08-19T00:44:05;23.50;58.30
7234;DHT22;3658;47.992;10.158;2022-08-19T00:46:35;23.50;58.20
7234;DHT22;3658;47.992;10.158;2022-08-19T00:49:06;23.50;58.20
7234;DHT22;3658;47.992;10.158;2022-08-19T00:51:36;23.50;58.10
7234;DHT22;3658;47.992;10.158;2022-08-19T00:54:03;23.50;58.10
7234;DHT22;3658;47.992;10.158;2022-08-19T00:56:30;23.50;58.10
7234;DHT22;3658;47.992;10.158;2022-08-19T00:59:01;23.50;58.10
7234;DHT22;3658;47.992;10.158;2022-08-19T01:01:29;23.50;58.10
7234;DHT22;3658;47.992;10.158;2022-08-19T01:03:56;23.50;58.00
7234;DHT22;3658;47.992;10.158;2022-08-19T01:06:23;23.50;58.00
7234;DHT22;3658;47.992;10.158;2022-08-19T01:08:50;23.50;58.00
7234;DHT22;3658;47.992;10.158;2022-08-19T01:11:17;23.50;58.00
7234;DHT22;3658;47.992;10.158;2022-08-19T01:13:44;23.50;58.00
7234;DHT22;3658;47.992;10.158;2022-08-19T01:16:14;23.50;58.00
7234;DHT22;3658;47.992;10.158;2022-08-19T01:18:42;23.50;57.90
7234;DHT22;3658;47.992;10.158;2022-08-19T01:21:15;23.50;58.00
7234;DHT22;3658;47.992;10.158;2022-08-19T01:23:46;23.50;57.90
7234;DHT22;3658;47.992;10.158;2022-08-19T01:26:16;23.40;57.80
7234;DHT22;3658;47.992;10.158;2022-08-19T01:28:45;23.40;57.80
7234;DHT22;3658;47.992;10.158;2022-08-19T01:31:15;23.40;57.70
7234;DHT22;3658;47.992;10.158;2022-08-19T01:33:42;23.40;57.70
7234;DHT22;3658;47.992;10.158;2022-08-19T01:36:12;23.40;57.70
7234;DHT22;3658;47.992;10.158;2022-08-19T01:38:42;23.40;57.70
7234;DHT22;3658;47.992;10.158;2022-08-19T01:41:11;23.40;57.70
7234;DHT22;3658;47.992;10.158;2022-08-19T01:43:38;23.40;57.70
7234;DHT22;3658;47.992;10.158;2022-08-19T01:46:05;23.40;57.70
7234;DHT22;3658;47.992;10.158;2022-08-19T01:48:34;23.40;57.70
7234;DHT22;3658;47.992;10.158;2022-08-19T01:51:01;23.40;57.70
7234;DHT22;3658;47.992;10.158;2022-08-19T01:53:29;23.40;57.60
7234;DHT22;3658;47.992;10.158;2022-08-19T01:55:56;23.40;57.60
7234;DHT22;3658;47.992;10.158;2022-08-19T01:58:34;23.40;57.60
7234;DHT22;3658;47.992;10.158;2022-08-19T02:01:05;23.40;57.60
7234;DHT22;3658;47.992;10.158;2022-08-19T02:03:32;23.40;57.60
7234;DHT22;3658;47.992;10.158;2022-08-19T02:06:01;23.40;57.60
7234;DHT22;3658;47.992;10.158;2022-08-19T02:08:29;23.40;57.60
7234;DHT22;3658;47.992;10.158;2022-08-19T02:10:56;23.40;57.60
7234;DHT22;3658;47.992;10.158;2022-08-19T02:13:26;23.40;57.50
7234;DHT22;3658;47.992;10.158;2022-08-19T02:15:53;23.40;57.50
7234;DHT22;3658;47.992;10.158;2022-08-19T02:18:20;23.40;57.50
7234;DHT22;3658;47.992;10.158;2022-08-19T02:20:47;23.40;57.50
7234;DHT22;3658;47.992;10.158;2022-08-19T02:23:15;23.40;57.50
7234;DHT22;3658;47.992;10.158;2022-08-19T02:25:44;23.40;57.50
7234;DHT22;3658;47.992;10.158;2022-08-19T02:28:12;23.40;57.50
7234;DHT22;3658;47.992;10.158;2022-08-19T02:30:42;23.40;57.50
7234;DHT22;3658;47.992;10.158;2022-08-19T02:33:09;23.40;57.50
7234;DHT22;3658;47.992;10.158;2022-08-19T02:35:36;23.40;57.40
7234;DHT22;3658;47.992;10.158;2022-08-19T02:38:03;23.40;57.40
7234;DHT22;3658;47.992;10.158;2022-08-19T02:40:52;23.40;57.40
7234;DHT22;3658;47.992;10.158;2022-08-19T02:43:20;23.40;57.40
7234;DHT22;3658;47.992;10.158;2022-08-19T02:45:49;23.40;57.40
7234;DHT22;3658;47.992;10.158;2022-08-19T02:48:16;23.40;57.40
7234;DHT22;3658;47.992;10.158;2022-08-19T02:50:44;23.40;57.40
7234;DHT22;3658;47.992;10.158;2022-08-19T02:53:12;23.40;57.40
7234;DHT22;3658;47.992;10.158;2022-08-19T02:55:43;23.40;57.30
7234;DHT22;3658;47.992;10.158;2022-08-19T02:58:11;23.40;57.40
7234;DHT22;3658;47.992;10.158;2022-08-19T03:00:42;23.40;57.30
7234;DHT22;3658;47.992;10.158;2022-08-19T03:03:11;23.40;57.30
7234;DHT22;3658;47.992;10.158;2022-08-19T03:05:39;23.40;57.90
7234;DHT22;3658;47.992;10.158;2022-08-19T03:08:07;23.40;57.30
7234;DHT22;3658;47.992;10.158;2022-08-19T03:10:40;23.40;57.30
7234;DHT22;3658;47.992;10.158;2022-08-19T03:13:10;23.40;57.30
7234;DHT22;3658;47.992;10.158;2022-08-19T03:15:40;23.40;57.20
7234;DHT22;3658;47.992;10.158;2022-08-19T03:18:07;23.40;57.20
7234;DHT22;3658;47.992;10.158;2022-08-19T03:20:40;23.40;57.30
7234;DHT22;3658;47.992;10.158;2022-08-19T03:23:07;23.40;57.20
7234;DHT22;3658;47.992;10.158;2022-08-19T03:25:37;23.40;57.20
7234;DHT22;3658;47.992;10.158;2022-08-19T03:28:04;23.40;57.20
7234;DHT22;3658;47.992;10.158;2022-08-19T03:30:31;23.40;57.20
7234;DHT22;3658;47.992;10.158;2022-08-19T03:32:58;23.40;57.20
7234;DHT22;3658;47.992;10.158;2022-08-19T03:35:25;23.40;57.20
7234;DHT22;3658;47.992;10.158;2022-08-19T03:37:54;23.40;57.20
7234;DHT22;3658;47.992;10.158;2022-08-19T03:40:22;23.40;57.20
7234;DHT22;3658;47.992;10.158;2022-08-19T03:42:48;23.40;57.20
7234;DHT22;3658;47.992;10.158;2022-08-19T03:45:15;23.40;57.20
7234;DHT22;3658;47.992;10.158;2022-08-19T03:47:42;23.40;57.20
7234;DHT22;3658;47.992;10.158;2022-08-19T03:50:10;23.40;57.20
7234;DHT22;3658;47.992;10.158;2022-08-19T03:52:37;23.40;57.20
7234;DHT22;3658;47.992;10.158;2022-08-19T03:55:07;23.40;57.20
7234;DHT22;3658;47.992;10.158;2022-08-19T03:57:34;23.40;57.10
7234;DHT22;3658;47.992;10.158;2022-08-19T04:00:01;23.40;57.10
7234;DHT22;3658;47.992;10.158;2022-08-19T04:02:30;23.40;57.10
7234;DHT22;3658;47.992;10.158;2022-08-19T04:04:57;23.40;57.10
7234;DHT22;3658;47.992;10.158;2022-08-19T04:07:24;23.40;57.10
7234;DHT22;3658;47.992;10.158;2022-08-19T04:09:51;23.30;57.00
7234;DHT22;3658;47.992;10.158;2022-08-19T04:12:20;23.40;57.10
7234;DHT22;3658;47.992;10.158;2022-08-19T04:14:47;23.30;57.00
7234;DHT22;3658;47.992;10.158;2022-08-19T04:17:14;23.40;57.10
7234;DHT22;3658;47.992;10.158;2022-08-19T04:19:41;23.40;57.10
7234;DHT22;3658;47.992;10.158;2022-08-19T04:22:08;23.40;57.10
7234;DHT22;3658;47.992;10.158;2022-08-19T04:24:36;23.30;57.00
7234;DHT22;3658;47.992;10.158;2022-08-19T04:27:04;23.30;57.00
7234;DHT22;3658;47.992;10.158;2022-08-19T04:29:33;23.30;57.00
7234;DHT22;3658;47.992;10.158;2022-08-19T04:32:00;23.30;57.00
7234;DHT22;3658;47.992;10.158;2022-08-19T04:34:28;23.30;57.00
7234;DHT22;3658;47.992;10.158;2022-08-19T04:36:57;23.30;57.00
7234;DHT22;3658;47.992;10.158;2022-08-19T04:39:27;23.30;57.00
7234;DHT22;3658;47.992;10.158;2022-08-19T04:42:09;23.30;57.50
7234;DHT22;3658;47.992;10.158;2022-08-19T04:44:55;23.30;56.90
7234;DHT22;3658;47.992;10.158;2022-08-19T04:47:22;23.30;56.90
7234;DHT22;3658;47.992;10.158;2022-08-19T04:49:49;23.30;56.90
7234;DHT22;3658;47.992;10.158;2022-08-19T04:52:16;23.30;56.90
7234;DHT22;3658;47.992;10.158;2022-08-19T04:54:43;23.30;56.90
7234;DHT22;3658;47.992;10.158;2022-08-19T04:57:10;23.30;56.90
7234;DHT22;3658;47.992;10.158;2022-08-19T04:59:38;23.30;56.90
7234;DHT22;3658;47.992;10.158;2022-08-19T05:02:09;23.30;56.90
7234;DHT22;3658;47.992;10.158;2022-08-19T05:04:36;23.30;57.00
7234;DHT22;3658;47.992;10.158;2022-08-19T05:07:05;23.30;56.90
7234;DHT22;3658;47.992;10.158;2022-08-19T05:09:32;23.30;56.90
7234;DHT22;3658;47.992;10.158;2022-08-19T05:11:59;23.30;57.00
7234;DHT22;3658;47.992;10.158;2022-08-19T05:14:27;23.30;57.00
7234;DHT22;3658;47.992;10.158;2022-08-19T05:16:54;23.30;57.10
7234;DHT22;3658;47.992;10.158;2022-08-19T05:19:23;23.30;57.20
7234;DHT22;3658;47.992;10.158;2022-08-19T05:22:07;23.30;57.20
7234;DHT22;3658;47.992;10.158;2022-08-19T05:24:52;23.30;57.40
7234;DHT22;3658;47.992;10.158;2022-08-19T05:27:19;23.30;57.50
7234;DHT22;3658;47.992;10.158;2022-08-19T05:29:47;23.30;57.50
7234;DHT22;3658;47.992;10.158;2022-08-19T05:32:14;23.30;57.60
7234;DHT22;3658;47.992;10.158;2022-08-19T05:34:43;23.30;57.60
7234;DHT22;3658;47.992;10.158;2022-08-19T05:37:10;23.30;57.70
7234;DHT22;3658;47.992;10.158;2022-08-19T05:39:38;23.30;57.70
7234;DHT22;3658;47.992;10.158;2022-08-19T05:42:08;23.30;57.80
7234;DHT22;3658;47.992;10.158;2022-08-19T05:44:37;23.30;57.80
7234;DHT22;3658;47.992;10.158;2022-08-19T05:47:07;23.30;57.80
7234;DHT22;3658;47.992;10.158;2022-08-19T05:49:35;23.30;57.80
7234;DHT22;3658;47.992;10.158;2022-08-19T05:52:06;23.30;57.80
7234;DHT22;3658;47.992;10.158;2022-08-19T05:54:34;23.30;57.70
7234;DHT22;3658;47.992;10.158;2022-08-19T05:57:02;23.30;57.80
7234;DHT22;3658;47.992;10.158;2022-08-19T05:59:29;23.30;57.80
7234;DHT22;3658;47.992;10.158;2022-08-19T06:01:57;23.30;57.80
7234;DHT22;3658;47.992;10.158;2022-08-19T06:04:25;23.30;57.80
7234;DHT22;3658;47.992;10.158;2022-08-19T06:06:53;23.30;57.80
7234;DHT22;3658;47.992;10.158;2022-08-19T06:09:22;23.30;57.80
7234;DHT22;3658;47.992;10.158;2022-08-19T06:11:51;23.30;57.80
7234;DHT22;3658;47.992;10.158;2022-08-19T06:14:21;23.30;57.90
7234;DHT22;3658;47.992;10.158;2022-08-19T06:16:51;23.30;57.90
7234;DHT22;3658;47.992;10.158;2022-08-19T06:19:20;23.30;58.00
7234;DHT22;3658;47.992;10.158;2022-08-19T06:21:48;23.30;58.00
7234;DHT22;3658;47.992;10.158;2022-08-19T06:24:19;23.30;58.00
7234;DHT22;3658;47.992;10.158;2022-08-19T06:26:48;23.30;58.10
7234;DHT22;3658;47.992;10.158;2022-08-19T06:29:17;23.30;58.10
7234;DHT22;3658;47.992;10.158;2022-08-19T06:31:46;23.30;58.10
7234;DHT22;3658;47.992;10.158;2022-08-19T06:34:15;23.30;58.20
7234;DHT22;3658;47.992;10.158;2022-08-19T06:36:46;23.30;58.80
7234;DHT22;3658;47.992;10.158;2022-08-19T06:39:14;23.30;59.20
7234;DHT22;3658;47.992;10.158;2022-08-19T06:41:44;23.30;59.50
7234;DHT22;3658;47.992;10.158;2022-08-19T06:44:13;23.30;59.40
7234;DHT22;3658;47.992;10.158;2022-08-19T06:46:41;23.30;59.80
7234;DHT22;3658;47.992;10.158;2022-08-19T06:49:08;23.30;60.60
7234;DHT22;3658;47.992;10.158;2022-08-19T06:51:39;23.30;59.90
7234;DHT22;3658;47.992;10.158;2022-08-19T06:54:07;23.30;60.70
7234;DHT22;3658;47.992;10.158;2022-08-19T06:56:35;23.30;61.00
7234;DHT22;3658;47.992;10.158;2022-08-19T06:59:03;23.30;60.80
7234;DHT22;3658;47.992;10.158;2022-08-19T07:01:35;23.30;60.10
7234;DHT22;3658;47.992;10.158;2022-08-19T07:04:04;23.30;60.50
7234;DHT22;3658;47.992;10.158;2022-08-19T07:06:31;23.30;59.90
7234;DHT22;3658;47.992;10.158;2022-08-19T07:08:58;23.30;60.60
7234;DHT22;3658;47.992;10.158;2022-08-19T07:11:26;23.30;61.00
7234;DHT22;3658;47.992;10.158;2022-08-19T07:13:53;23.30;61.20
7234;DHT22;3658;47.992;10.158;2022-08-19T07:16:21;23.40;61.40
7234;DHT22;3658;47.992;10.158;2022-08-19T07:18:50;23.40;61.40
7234;DHT22;3658;47.992;10.158;2022-08-19T07:21:21;23.40;61.50
7234;DHT22;3658;47.992;10.158;2022-08-19T07:23:50;23.40;61.50
7234;DHT22;3658;47.992;10.158;2022-08-19T07:26:20;23.40;61.60
7234;DHT22;3658;47.992;10.158;2022-08-19T07:28:48;23.50;61.70
7234;DHT22;3658;47.992;10.158;2022-08-19T07:31:18;23.50;61.90
7234;DHT22;3658;47.992;10.158;2022-08-19T07:33:46;23.50;61.80
7234;DHT22;3658;47.992;10.158;2022-08-19T07:36:17;23.50;61.90
7234;DHT22;3658;47.992;10.158;2022-08-19T07:38:46;23.50;61.90
7234;DHT22;3658;47.992;10.158;2022-08-19T07:41:17;23.50;62.00
7234;DHT22;3658;47.992;10.158;2022-08-19T07:43:45;23.50;62.30
7234;DHT22;3658;47.992;10.158;2022-08-19T07:46:13;23.50;62.40
7234;DHT22;3658;47.992;10.158;2022-08-19T07:48:42;23.50;62.50
7234;DHT22;3658;47.992;10.158;2022-08-19T07:51:16;23.50;62.60
7234;DHT22;3658;47.992;10.158;2022-08-19T07:53:44;23.50;62.60
7234;DHT22;3658;47.992;10.158;2022-08-19T07:56:12;23.50;62.90
7234;DHT22;3658;47.992;10.158;2022-08-19T07:58:42;23.50;62.50
7234;DHT22;3658;47.992;10.158;2022-08-19T08:01:11;23.40;61.90
7234;DHT22;3658;47.992;10.158;2022-08-19T08:03:38;23.40;62.00
7234;DHT22;3658;47.992;10.158;2022-08-19T08:06:24;23.40;61.90
7234;DHT22;3658;47.992;10.158;2022-08-19T08:09:09;23.30;61.50
7234;DHT22;3658;47.992;10.158;2022-08-19T08:11:47;23.30;61.40
7234;DHT22;3658;47.992;10.158;2022-08-19T08:14:17;23.30;61.30
7234;DHT22;3658;47.992;10.158;2022-08-19T08:16:45;23.30;61.30
7234;DHT22;3658;47.992;10.158;2022-08-19T08:19:13;23.30;61.80
7234;DHT22;3658;47.992;10.158;2022-08-19T08:21:43;23.30;61.00
7234;DHT22;3658;47.992;10.158;2022-08-19T08:24:11;23.30;61.00
7234;DHT22;3658;47.992;10.158;2022-08-19T08:26:39;23.30;61.00
7234;DHT22;3658;47.992;10.158;2022-08-19T08:29:07;23.30;61.10
7234;DHT22;3658;47.992;10.158;2022-08-19T08:31:37;23.30;61.20
7234;DHT22;3658;47.992;10.158;2022-08-19T08:34:04;23.30;61.00
7234;DHT22;3658;47.992;10.158;2022-08-19T08:36:31;23.30;60.90
7234;DHT22;3658;47.992;10.158;2022-08-19T08:39:00;23.30;60.90
7234;DHT22;3658;47.992;10.158;2022-08-19T08:41:33;23.30;61.00
7234;DHT22;3658;47.992;10.158;2022-08-19T08:44:03;23.30;61.00
7234;DHT22;3658;47.992;10.158;2022-08-19T08:46:37;23.20;61.60
7234;DHT22;3658;47.992;10.158;2022-08-19T08:49:14;23.30;62.30
7234;DHT22;3658;47.992;10.158;2022-08-19T08:51:48;23.30;62.20
7234;DHT22;3658;47.992;10.158;2022-08-19T08:54:30;23.30;62.20
7234;DHT22;3658;47.992;10.158;2022-08-19T08:56:57;23.30;62.20
7234;DHT22;3658;47.992;10.158;2022-08-19T08:59:28;23.40;62.30
7234;DHT22;3658;47.992;10.158;2022-08-19T09:01:58;23.40;62.20
7234;DHT22;3658;47.992;10.158;2022-08-19T09:04:25;23.30;61.70
7234;DHT22;3658;47.992;10.158;2022-08-19T09:07:02;23.30;61.50
7234;DHT22;3658;47.992;10.158;2022-08-19T09:09:40;23.30;61.20
7234;DHT22;3658;47.992;10.158;2022-08-19T09:12:13;23.30;61.40
7234;DHT22;3658;47.992;10.158;2022-08-19T09:14:47;23.30;62.20
7234;DHT22;3658;47.992;10.158;2022-08-19T09:17:15;23.30;62.50
7234;DHT22;3658;47.992;10.158;2022-08-19T09:19:54;23.30;62.50
7234;DHT22;3658;47.992;10.158;2022-08-19T09:22:21;23.30;62.10
7234;DHT22;3658;47.992;10.158;2022-08-19T09:24:50;23.30;61.70
7234;DHT22;3658;47.992;10.158;2022-08-19T09:27:19;23.30;61.90
7234;DHT22;3658;47.992;10.158;2022-08-19T09:29:46;23.30;62.40
7234;DHT22;3658;47.992;10.158;2022-08-19T09:32:14;23.30;62.70
7234;DHT22;3658;47.992;10.158;2022-08-19T09:34:41;23.30;63.20
7234;DHT22;3658;47.992;10.158;2022-08-19T09:37:09;23.30;63.50
7234;DHT22;3658;47.992;10.158;2022-08-19T09:39:36;23.30;63.80
7234;DHT22;3658;47.992;10.158;2022-08-19T09:42:05;23.40;63.90
7234;DHT22;3658;47.992;10.158;2022-08-19T09:44:37;23.40;64.20
7234;DHT22;3658;47.992;10.158;2022-08-19T09:47:04;23.40;64.30
7234;DHT22;3658;47.992;10.158;2022-08-19T09:49:31;23.40;64.30
7234;DHT22;3658;47.992;10.158;2022-08-19T09:51:58;23.40;64.40
7234;DHT22;3658;47.992;10.158;2022-08-19T09:54:27;23.40;64.40
7234;DHT22;3658;47.992;10.158;2022-08-19T09:56:54;23.40;64.30
7234;DHT22;3658;47.992;10.158;2022-08-19T09:59:23;23.40;64.30
7234;DHT22;3658;47.992;10.158;2022-08-19T10:01:50;23.40;64.40
7234;DHT22;3658;47.992;10.158;2022-08-19T10:04:18;23.40;64.60
7234;DHT22;3658;47.992;10.158;2022-08-19T10:06:45;23.40;64.80
7234;DHT22;3658;47.992;10.158;2022-08-19T10:09:14;23.40;64.70
7234;DHT22;3658;47.992;10.158;2022-08-19T10:11:43;23.40;64.70
7234;DHT22;3658;47.992;10.158;2022-08-19T10:14:15;23.40;64.60
7234;DHT22;3658;47.992;10.158;2022-08-19T10:16:43;23.40;63.60
7234;DHT22;3658;47.992;10.158;2022-08-19T10:19:10;23.30;63.00
7234;DHT22;3658;47.992;10.158;2022-08-19T10:21:38;23.30;63.10
7234;DHT22;3658;47.992;10.158;2022-08-19T10:24:06;23.20;63.00
7234;DHT22;3658;47.992;10.158;2022-08-19T10:26:36;23.20;62.90
7234;DHT22;3658;47.992;10.158;2022-08-19T10:29:04;23.20;62.70
7234;DHT22;3658;47.992;10.158;2022-08-19T10:31:33;23.20;62.60
7234;DHT22;3658;47.992;10.158;2022-08-19T10:34:01;23.20;62.60
7234;DHT22;3658;47.992;10.158;2022-08-19T10:36:30;23.20;62.50
7234;DHT22;3658;47.992;10.158;2022-08-19T10:39:01;23.20;62.40
7234;DHT22;3658;47.992;10.158;2022-08-19T10:41:29;23.20;62.50
7234;DHT22;3658;47.992;10.158;2022-08-19T10:43:58;23.20;62.40
7234;DHT22;3658;47.992;10.158;2022-08-19T10:46:27;23.20;63.00
7234;DHT22;3658;47.992;10.158;2022-08-19T10:48:55;23.10;62.60
7234;DHT22;3658;47.992;10.158;2022-08-19T10:51:23;23.10;62.20
7234;DHT22;3658;47.992;10.158;2022-08-19T10:54:13;23.20;62.20
7234;DHT22;3658;47.992;10.158;2022-08-19T10:56:40;23.10;62.30
7234;DHT22;3658;47.992;10.158;2022-08-19T10:59:21;23.10;62.20
7234;DHT22;3658;47.992;10.158;2022-08-19T11:01:48;23.10;62.60
7234;DHT22;3658;47.992;10.158;2022-08-19T11:04:16;23.10;63.00
7234;DHT22;3658;47.992;10.158;2022-08-19T11:06:46;23.00;63.00
7234;DHT22;3658;47.992;10.158;2022-08-19T11:09:14;23.00;63.10
7234;DHT22;3658;47.992;10.158;2022-08-19T11:11:42;23.00;63.00
7234;DHT22;3658;47.992;10.158;2022-08-19T11:14:11;23.00;62.70
7234;DHT22;3658;47.992;10.158;2022-08-19T11:16:39;23.10;62.70
7234;DHT22;3658;47.992;10.158;2022-08-19T11:19:08;23.10;62.90
7234;DHT22;3658;47.992;10.158;2022-08-19T11:21:37;23.10;62.70
7234;DHT22;3658;47.992;10.158;2022-08-19T11:24:09;23.10;62.80
7234;DHT22;3658;47.992;10.158;2022-08-19T11:26:37;23.10;62.50
7234;DHT22;3658;47.992;10.158;2022-08-19T11:29:06;23.10;62.50
7234;DHT22;3658;47.992;10.158;2022-08-19T11:31:38;23.10;62.20
7234;DHT22;3658;47.992;10.158;2022-08-19T11:34:07;23.10;62.00
7234;DHT22;3658;47.992;10.158;2022-08-19T11:36:37;23.10;62.70
7234;DHT22;3658;47.992;10.158;2022-08-19T11:39:07;23.10;62.00
7234;DHT22;3658;47.992;10.158;2022-08-19T11:41:35;23.10;62.10
7234;DHT22;3658;47.992;10.158;2022-08-19T11:44:03;23.10;62.00
7234;DHT22;3658;47.992;10.158;2022-08-19T11:46:30;23.10;62.10
7234;DHT22;3658;47.992;10.158;2022-08-19T11:48:58;23.10;62.10
7234;DHT22;3658;47.992;10.158;2022-08-19T11:51:28;23.10;62.10
7234;DHT22;3658;47.992;10.158;2022-08-19T11:53:57;23.10;62.20
7234;DHT22;3658;47.992;10.158;2022-08-19T11:56:26;23.10;62.20
7234;DHT22;3658;47.992;10.158;2022-08-19T11:58:55;23.10;62.10
7234;DHT22;3658;47.992;10.158;2022-08-19T12:01:24;23.10;62.40
7234;DHT22;3658;47.992;10.158;2022-08-19T12:03:54;23.10;62.20
7234;DHT22;3658;47.992;10.158;2022-08-19T12:06:23;23.10;62.10
7234;DHT22;3658;47.992;10.158;2022-08-19T12:08:54;23.10;62.20
7234;DHT22;3658;47.992;10.158;2022-08-19T12:11:21;23.10;62.40
7234;DHT22;3658;47.992;10.158;2022-08-19T12:13:51;23.10;62.20
7234;DHT22;3658;47.992;10.158;2022-08-19T12:16:20;23.10;62.00
7234;DHT22;3658;47.992;10.158;2022-08-19T12:18:48;23.10;61.80
7234;DHT22;3658;47.992;10.158;2022-08-19T12:21:19;23.10;61.70
7234;DHT22;3658;47.992;10.158;2022-08-19T12:23:47;23.10;62.30
7234;DHT22;3658;47.992;10.158;2022-08-19T12:26:15;23.10;61.50
7234;DHT22;3658;47.992;10.158;2022-08-19T12:28:42;23.10;61.40
7234;DHT22;3658;47.992;10.158;2022-08-19T12:31:11;23.10;61.30
7234;DHT22;3658;47.992;10.158;2022-08-19T12:33:39;23.10;61.30
7234;DHT22;3658;47.992;10.158;2022-08-19T12:36:08;23.10;61.30
7234;DHT22;3658;47.992;10.158;2022-08-19T12:38:36;23.10;61.20
7234;DHT22;3658;47.992;10.158;2022-08-19T12:41:04;23.10;61.10
7234;DHT22;3658;47.992;10.158;2022-08-19T12:43:31;23.10;61.30
7234;DHT22;3658;47.992;10.158;2022-08-19T12:45:58;23.10;61.20
7234;DHT22;3658;47.992;10.158;2022-08-19T12:48:27;23.10;61.20
7234;DHT22;3658;47.992;10.158;2022-08-19T12:50:54;23.10;61.10
7234;DHT22;3658;47.992;10.158;2022-08-19T12:53:22;23.10;62.00
7234;DHT22;3658;47.992;10.158;2022-08-19T12:55:55;23.10;61.10
7234;DHT22;3658;47.992;10.158;2022-08-19T12:58:23;23.10;61.10
7234;DHT22;3658;47.992;10.158;2022-08-19T13:00:50;23.10;61.00
7234;DHT22;3658;47.992;10.158;2022-08-19T13:03:17;23.10;61.20
7234;DHT22;3658;47.992;10.158;2022-08-19T13:05:45;23.10;61.10
7234;DHT22;3658;47.992;10.158;2022-08-19T13:08:12;23.10;61.10
7234;DHT22;3658;47.992;10.158;2022-08-19T13:10:39;23.10;61.00
7234;DHT22;3658;47.992;10.158;2022-08-19T13:13:08;23.10;61.20
7234;DHT22;3658;47.992;10.158;2022-08-19T13:15:38;23.10;61.30
7234;DHT22;3658;47.992;10.158;2022-08-19T13:18:07;23.10;61.10
7234;DHT22;3658;47.992;10.158;2022-08-19T13:20:36;23.10;61.00
7234;DHT22;3658;47.992;10.158;2022-08-19T13:23:06;23.10;61.00
7234;DHT22;3658;47.992;10.158;2022-08-19T13:25:33;23.10;61.20
7234;DHT22;3658;47.992;10.158;2022-08-19T13:28:02;23.10;61.00
7234;DHT22;3658;47.992;10.158;2022-08-19T13:30:30;23.10;61.00
7234;DHT22;3658;47.992;10.158;2022-08-19T13:33:14;23.10;61.00
7234;DHT22;3658;47.992;10.158;2022-08-19T13:35:46;23.10;61.30
7234;DHT22;3658;47.992;10.158;2022-08-19T13:38:17;23.10;61.10
7234;DHT22;3658;47.992;10.158;2022-08-19T13:40:44;23.10;61.10
7234;DHT22;3658;47.992;10.158;2022-08-19T13:43:12;23.10;61.00
7234;DHT22;3658;47.992;10.158;2022-08-19T13:45:40;23.10;61.10
7234;DHT22;3658;47.992;10.158;2022-08-19T13:48:08;23.10;61.10
7234;DHT22;3658;47.992;10.158;2022-08-19T13:50:38;23.10;61.00
7234;DHT22;3658;47.992;10.158;2022-08-19T13:53:07;23.10;61.00
7234;DHT22;3658;47.992;10.158;2022-08-19T13:55:37;23.10;61.20
7234;DHT22;3658;47.992;10.158;2022-08-19T13:58:04;23.10;61.10
7234;DHT22;3658;47.992;10.158;2022-08-19T14:00:34;23.10;61.00
7234;DHT22;3658;47.992;10.158;2022-08-19T14:03:02;23.10;61.20
7234;DHT22;3658;47.992;10.158;2022-08-19T14:05:30;23.10;61.20
7234;DHT22;3658;47.992;10.158;2022-08-19T14:07:58;23.10;61.10
7234;DHT22;3658;47.992;10.158;2022-08-19T14:10:26;23.10;61.20
7234;DHT22;3658;47.992;10.158;2022-08-19T14:12:56;23.10;61.30
7234;DHT22;3658;47.992;10.158;2022-08-19T14:15:24;23.10;61.30
7234;DHT22;3658;47.992;10.158;2022-08-19T14:17:51;23.10;61.10
7234;DHT22;3658;47.992;10.158;2022-08-19T14:20:19;23.10;61.20
7234;DHT22;3658;47.992;10.158;2022-08-19T14:22:48;23.10;61.40
7234;DHT22;3658;47.992;10.158;2022-08-19T14:25:17;23.10;61.20
7234;DHT22;3658;47.992;10.158;2022-08-19T14:27:45;23.10;61.20
7234;DHT22;3658;47.992;10.158;2022-08-19T14:30:16;23.10;61.40
7234;DHT22;3658;47.992;10.158;2022-08-19T14:32:43;23.10;61.30
7234;DHT22;3658;47.992;10.158;2022-08-19T14:35:12;23.10;61.20
7234;DHT22;3658;47.992;10.158;2022-08-19T14:37:41;23.10;61.20
7234;DHT22;3658;47.992;10.158;2022-08-19T14:40:10;23.10;61.30
7234;DHT22;3658;47.992;10.158;2022-08-19T14:42:37;23.10;61.30
7234;DHT22;3658;47.992;10.158;2022-08-19T14:45:05;23.10;61.30
7234;DHT22;3658;47.992;10.158;2022-08-19T14:47:34;23.10;61.40
7234;DHT22;3658;47.992;10.158;2022-08-19T14:50:01;23.10;61.20
7234;DHT22;3658;47.992;10.158;2022-08-19T14:52:28;23.10;61.20
7234;DHT22;3658;47.992;10.158;2022-08-19T14:54:55;23.10;61.10
7234;DHT22;3658;47.992;10.158;2022-08-19T14:57:22;23.10;61.30
7234;DHT22;3658;47.992;10.158;2022-08-19T14:59:49;23.10;61.90
7234;DHT22;3658;47.992;10.158;2022-08-19T15:02:16;23.10;62.10
7234;DHT22;3658;47.992;10.158;2022-08-19T15:04:44;23.10;62.10
7234;DHT22;3658;47.992;10.158;2022-08-19T15:07:11;23.10;62.10
7234;DHT22;3658;47.992;10.158;2022-08-19T15:09:38;23.10;62.00
7234;DHT22;3658;47.992;10.158;2022-08-19T15:12:07;23.10;62.40
7234;DHT22;3658;47.992;10.158;2022-08-19T15:14:36;23.10;62.50
7234;DHT22;3658;47.992;10.158;2022-08-19T15:17:04;23.10;62.70
7234;DHT22;3658;47.992;10.158;2022-08-19T15:19:32;23.10;62.70
7234;DHT22;3658;47.992;10.158;2022-08-19T15:22:03;23.10;62.80
7234;DHT22;3658;47.992;10.158;2022-08-19T15:24:30;23.10;62.20
7234;DHT22;3658;47.992;10.158;2022-08-19T15:26:57;23.10;62.20
7234;DHT22;3658;47.992;10.158;2022-08-19T15:29:24;23.10;62.10
7234;DHT22;3658;47.992;10.158;2022-08-19T15:31:53;23.10;62.00
7234;DHT22;3658;47.992;10.158;2022-08-19T15:34:22;23.00;61.90
7234;DHT22;3658;47.992;10.158;2022-08-19T15:36:50;23.00;61.80
7234;DHT22;3658;47.992;10.158;2022-08-19T15:39:18;23.00;61.80
7234;DHT22;3658;47.992;10.158;2022-08-19T15:41:46;23.00;62.80
7234;DHT22;3658;47.992;10.158;2022-08-19T15:44:15;23.00;63.90
7234;DHT22;3658;47.992;10.158;2022-08-19T15:46:44;23.10;64.60
7234;DHT22;3658;47.992;10.158;2022-08-19T15:49:13;23.10;64.70
7234;DHT22;3658;47.992;10.158;2022-08-19T15:51:42;23.10;64.70
7234;DHT22;3658;47.992;10.158;2022-08-19T15:54:11;23.20;64.80
7234;DHT22;3658;47.992;10.158;2022-08-19T15:56:41;23.20;64.60